Time;durP1;ratioP1;P1;durP2;ratioP2;P2;SDS_P1;SDS_P2;PMS_P1;PMS_P2;Temp;Humidity;BMP_temperature;BMP_pressure;BME280_temperature;BME280_humidity;BME280_pressure;Samples;Min_cycle;Max_cycle;Signal;HPM_P1;HPM_P2
2022/12/03 00:01:02;;;;;;;30.48;12.07;;;-1.20;99.90;;;;;;5057996;28;20040;-66
2022/12/03 00:03:34;;;;;;;27.25;12.27;;;-1.30;99.90;;;;;;5043446;28;20043;-68
2022/12/03 00:06:00;;;;;;;31.35;12.60;;;-1.20;99.90;;;;;;5059917;28;20045;-66
2022/12/03 00:08:25;;;;;;;27.02;11.75;;;-1.20;99.90;;;;;;5043577;28;20102;-66
2022/12/03 00:10:51;;;;;;;29.17;12.93;;;-1.10;99.90;;;;;;5059101;28;20104;-67
2022/12/03 00:13:17;;;;;;;32.75;13.18;;;-1.20;99.90;;;;;;5057432;28;20112;-67
2022/12/03 00:15:42;;;;;;;28.63;11.63;;;-1.10;99.90;;;;;;5059233;28;20055;-65
2022/12/03 00:18:08;;;;;;;32.63;12.88;;;-1.20;99.90;;;;;;5050731;28;20444;-66
2022/12/03 00:20:34;;;;;;;33.88;13.07;;;-1.20;99.90;;;;;;5045574;28;20064;-66
2022/12/03 00:22:59;;;;;;;27.60;12.52;;;-1.30;99.90;;;;;;5046626;28;20078;-64
2022/12/03 00:25:25;;;;;;;28.20;12.68;;;-1.20;99.90;;;;;;5030567;28;20048;-66
2022/12/03 00:27:51;;;;;;;32.80;12.93;;;-1.20;99.90;;;;;;5032905;28;20478;-67
2022/12/03 00:30:16;;;;;;;31.13;13.02;;;-1.20;99.90;;;;;;5047712;28;20048;-66
2022/12/03 00:32:42;;;;;;;27.65;12.50;;;-1.20;99.90;;;;;;5046614;28;20432;-66
2022/12/03 00:35:08;;;;;;;30.05;12.10;;;-1.30;99.90;;;;;;5035323;28;20041;-67
2022/12/03 00:37:34;;;;;;;28.20;11.65;;;-1.20;99.90;;;;;;5045410;28;20048;-66
2022/12/03 00:40:01;;;;;;;26.27;11.75;;;-1.30;99.90;;;;;;5046728;28;20036;-66
2022/12/03 00:42:27;;;;;;;26.30;11.52;;;-1.20;99.90;;;;;;5046013;28;20041;-66
2022/12/03 00:44:53;;;;;;;30.13;11.55;;;-1.20;99.90;;;;;;5045727;28;20527;-66
2022/12/03 00:47:18;;;;;;;29.35;11.77;;;-1.20;99.90;;;;;;5045843;28;20059;-66
2022/12/03 00:49:44;;;;;;;31.70;11.55;;;-1.30;99.90;;;;;;5046105;28;20066;-67
2022/12/03 00:52:10;;;;;;;25.83;11.27;;;-1.30;99.90;;;;;;5044673;28;20036;-67
2022/12/03 00:54:35;;;;;;;26.50;11.35;;;-1.30;99.90;;;;;;5045364;28;20558;-66
2022/12/03 00:57:01;;;;;;;28.90;11.15;;;-1.30;99.90;;;;;;5038726;28;20086;-66
2022/12/03 00:59:27;;;;;;;29.88;12.15;;;-1.30;99.90;;;;;;5046734;28;20619;-66
2022/12/03 01:01:52;;;;;;;27.52;11.88;;;-1.40;99.90;;;;;;5045604;28;20037;-67
2022/12/03 01:04:18;;;;;;;33.90;12.75;;;-1.40;99.90;;;;;;5046301;28;20794;-66
2022/12/03 01:06:43;;;;;;;31.20;13.35;;;-1.30;99.90;;;;;;5046595;28;20087;-65
2022/12/03 01:09:09;;;;;;;28.75;11.90;;;-1.40;99.90;;;;;;5046478;28;20044;-66
2022/12/03 01:11:38;;;;;;;25.65;11.48;;;-1.30;99.90;;;;;;5046827;28;20109;-67
2022/12/03 01:14:09;;;;;;;28.83;11.80;;;-1.40;99.90;;;;;;5033453;28;20048;-66
2022/12/03 01:16:35;;;;;;;31.40;12.18;;;-1.40;99.90;;;;;;5046373;28;20123;-67
2022/12/03 01:19:01;;;;;;;29.80;12.13;;;-1.40;99.90;;;;;;5045790;28;20044;-68
2022/12/03 01:21:27;;;;;;;31.45;11.52;;;-1.40;99.90;;;;;;5046500;28;20611;-67
2022/12/03 01:23:52;;;;;;;27.50;12.13;;;-1.40;99.90;;;;;;5044915;28;20136;-67
2022/12/03 01:26:18;;;;;;;28.48;13.43;;;-1.40;99.90;;;;;;5045637;28;20115;-67
2022/12/03 01:28:44;;;;;;;25.60;12.43;;;-1.40;99.90;;;;;;5045650;28;20266;-65
2022/12/03 01:33:54;;;;;;;26.23;11.02;;;-1.40;99.90;;;;;;5044199;28;20093;-67
2022/12/03 01:36:20;;;;;;;28.65;13.07;;;-1.40;99.90;;;;;;5046729;28;20041;-67
2022/12/03 01:38:47;;;;;;;27.30;12.45;;;-1.40;99.90;;;;;;5045412;28;20113;-66
2022/12/03 01:41:13;;;;;;;31.48;12.07;;;-1.40;99.90;;;;;;5040149;28;20041;-66
2022/12/03 01:43:39;;;;;;;28.60;12.23;;;-1.40;99.90;;;;;;5045067;28;20083;-65
2022/12/03 01:46:05;;;;;;;28.10;12.45;;;-1.40;99.90;;;;;;5045681;28;20080;-65
2022/12/03 01:48:34;;;;;;;28.40;12.35;;;-1.40;99.90;;;;;;5045769;28;20045;-66
2022/12/03 01:51:01;;;;;;;27.10;11.32;;;-1.40;99.90;;;;;;5045611;28;20025;-67
2022/12/03 01:53:26;;;;;;;29.30;12.35;;;-1.40;99.90;;;;;;5044139;28;20088;-66
2022/12/03 01:55:52;;;;;;;28.58;11.40;;;-1.40;99.90;;;;;;5045971;28;20041;-66
2022/12/03 01:58:24;;;;;;;25.08;10.82;;;-1.40;99.90;;;;;;5045664;28;20033;-66
2022/12/03 02:00:50;;;;;;;25.83;11.60;;;-1.30;99.90;;;;;;5034623;28;20040;-67
2022/12/03 02:03:19;;;;;;;28.60;11.27;;;-1.30;99.90;;;;;;5067614;28;20033;-65
2022/12/03 02:05:45;;;;;;;25.90;11.77;;;-1.30;99.90;;;;;;5065771;28;20049;-66
2022/12/03 02:08:34;;;;;;;24.80;10.85;;;-1.30;99.90;;;;;;5064298;28;20711;-66
2022/12/03 02:11:06;;;;;;;24.23;11.48;;;-1.30;99.90;;;;;;5061810;28;20147;-67
2022/12/03 02:13:32;;;;;;;26.52;11.48;;;-1.30;99.90;;;;;;5064051;28;20048;-66
2022/12/03 02:15:58;;;;;;;24.95;10.88;;;-1.30;99.90;;;;;;5064957;28;20425;-67
2022/12/03 02:18:24;;;;;;;20.75;9.32;;;-1.30;99.90;;;;;;5064976;28;20087;-66
2022/12/03 02:21:01;;;;;;;30.30;12.48;;;-1.30;99.90;;;;;;5026397;28;20040;-67
2022/12/03 02:23:41;;;;;;;21.88;10.63;;;-1.30;99.90;;;;;;5059516;28;20443;-66
2022/12/03 02:26:06;;;;;;;23.80;9.85;;;-1.30;99.90;;;;;;5064698;28;20143;-65
2022/12/03 02:28:32;;;;;;;23.20;10.45;;;-1.30;99.90;;;;;;5048867;28;20190;-67
2022/12/03 02:30:58;;;;;;;22.48;10.30;;;-1.30;99.90;;;;;;5060821;28;20029;-66
2022/12/03 02:33:24;;;;;;;21.05;9.70;;;-1.30;99.90;;;;;;5061478;28;20149;-66
2022/12/03 02:35:49;;;;;;;23.45;10.18;;;-1.30;99.90;;;;;;5060907;28;20440;-66
2022/12/03 02:38:21;;;;;;;25.35;11.65;;;-1.30;99.90;;;;;;5065242;28;20040;-66
2022/12/03 02:40:50;;;;;;;26.27;10.98;;;-1.30;99.90;;;;;;5065290;28;20056;-66
2022/12/03 02:43:17;;;;;;;26.05;11.48;;;-1.30;99.90;;;;;;5063893;28;20251;-66
2022/12/03 02:45:49;;;;;;;26.42;10.75;;;-1.30;99.90;;;;;;5061743;28;20036;-67
2022/12/03 02:48:19;;;;;;;23.63;11.98;;;-1.30;99.90;;;;;;5060123;28;20040;-67
2022/12/03 02:50:52;;;;;;;22.58;10.43;;;-1.30;99.90;;;;;;5060252;28;20044;-66
2022/12/03 02:53:26;;;;;;;21.52;10.23;;;-1.40;99.90;;;;;;5061072;28;20072;-67
2022/12/03 02:55:54;;;;;;;31.40;12.88;;;-1.30;99.90;;;;;;5062192;28;20055;-66
2022/12/03 02:58:22;;;;;;;25.08;10.98;;;-1.30;99.90;;;;;;5060481;28;20029;-67
2022/12/03 03:00:48;;;;;;;28.05;11.95;;;-1.40;99.90;;;;;;5064228;28;20753;-66
2022/12/03 03:03:16;;;;;;;23.15;10.18;;;-1.30;99.90;;;;;;5063153;28;20412;-65
2022/12/03 03:05:42;;;;;;;22.67;10.15;;;-1.30;99.90;;;;;;5061401;28;20044;-66
2022/12/03 03:08:09;;;;;;;25.15;10.88;;;-1.30;99.90;;;;;;5060892;28;20580;-66
2022/12/03 03:10:37;;;;;;;19.83;10.13;;;-1.30;99.90;;;;;;5045509;28;20067;-67
2022/12/03 03:13:08;;;;;;;24.40;10.75;;;-1.30;99.90;;;;;;5063766;28;20120;-67
2022/12/03 03:15:36;;;;;;;22.52;10.43;;;-1.20;99.90;;;;;;5064554;28;20058;-66
2022/12/03 03:18:02;;;;;;;22.30;10.00;;;-1.20;99.90;;;;;;5064213;28;20048;-66
2022/12/03 03:20:28;;;;;;;21.27;10.90;;;-1.30;99.90;;;;;;5064408;28;20044;-67
2022/12/03 03:23:03;;;;;;;21.15;9.90;;;-1.30;99.90;;;;;;5063681;28;20055;-67
2022/12/03 03:25:28;;;;;;;19.73;8.85;;;-1.30;99.90;;;;;;5063045;28;20573;-67
2022/12/03 03:27:54;;;;;;;21.60;9.50;;;-1.20;99.90;;;;;;5064413;28;20033;-67
2022/12/03 03:30:20;;;;;;;19.25;9.30;;;-1.30;99.90;;;;;;5063078;28;20081;-67
2022/12/03 03:32:46;;;;;;;20.05;8.98;;;-1.20;99.90;;;;;;5063968;28;20174;-67
2022/12/03 03:35:13;;;;;;;17.95;8.65;;;-1.20;99.90;;;;;;5063985;28;20037;-67
2022/12/03 03:37:39;;;;;;;17.80;8.27;;;-1.20;99.90;;;;;;5053991;28;20045;-67
2022/12/03 03:40:05;;;;;;;19.17;9.05;;;-1.20;99.90;;;;;;5064535;28;20048;-67
2022/12/03 03:42:31;;;;;;;18.88;8.95;;;-1.20;99.90;;;;;;5065294;28;20048;-66
2022/12/03 03:44:57;;;;;;;17.88;7.95;;;-1.10;99.90;;;;;;5061663;28;20115;-68
2022/12/03 03:47:23;;;;;;;18.42;8.55;;;-1.10;99.90;;;;;;5064435;28;20076;-67
2022/12/03 03:49:49;;;;;;;19.20;9.13;;;-1.10;99.90;;;;;;5047098;28;20591;-66
2022/12/03 03:52:16;;;;;;;20.80;9.52;;;-1.20;99.90;;;;;;5065327;28;20040;-67
2022/12/03 03:54:42;;;;;;;19.45;9.23;;;-1.30;99.90;;;;;;5065457;28;20446;-66
2022/12/03 03:57:08;;;;;;;18.80;8.43;;;-1.30;99.90;;;;;;5050802;28;20045;-67
2022/12/03 03:59:34;;;;;;;20.30;9.48;;;-1.30;99.90;;;;;;5067726;28;20045;-67
2022/12/03 04:01:59;;;;;;;20.77;9.38;;;-1.20;99.90;;;;;;5067075;28;20527;-66
2022/12/03 04:04:26;;;;;;;18.48;9.48;;;-1.20;99.90;;;;;;5064281;28;20032;-67
2022/12/03 04:06:51;;;;;;;22.77;9.55;;;-1.20;99.90;;;;;;5064610;28;20041;-66
2022/12/03 04:09:17;;;;;;;19.58;8.70;;;-1.20;99.90;;;;;;5066237;28;20043;-66
2022/12/03 04:14:27;;;;;;;21.65;9.10;;;-1.30;99.90;;;;;;5061413;28;20048;-66
2022/12/03 04:16:53;;;;;;;17.50;8.82;;;-1.20;99.90;;;;;;5064305;28;20036;-65
2022/12/03 04:19:18;;;;;;;19.08;8.95;;;-1.30;99.90;;;;;;5067043;28;20040;-64
2022/12/03 04:24:28;;;;;;;17.73;8.82;;;-1.20;99.90;;;;;;5064077;28;20033;-64
2022/12/03 04:29:38;;;;;;;17.52;8.98;;;-1.10;99.90;;;;;;5067577;28;20070;-65
2022/12/03 04:37:32;;;;;;;25.35;9.73;;;-1.30;99.90;;;;;;5056276;28;20472;-65
2022/12/03 04:39:58;;;;;;;20.88;9.43;;;-1.20;99.90;;;;;;5050265;28;20044;-65
2022/12/03 04:42:24;;;;;;;20.23;9.45;;;-1.30;99.90;;;;;;5066388;28;20040;-64
2022/12/03 04:44:49;;;;;;;22.50;10.93;;;-1.40;99.90;;;;;;5064648;28;20039;-68
2022/12/03 04:47:18;;;;;;;22.23;10.75;;;-1.40;99.90;;;;;;5061843;28;20037;-67
2022/12/03 04:49:46;;;;;;;24.58;10.30;;;-1.30;99.90;;;;;;5066019;28;20048;-67
2022/12/03 04:52:13;;;;;;;26.88;11.90;;;-1.30;99.90;;;;;;5067124;28;20037;-67
2022/12/03 04:54:40;;;;;;;26.00;10.90;;;-1.30;99.90;;;;;;5063443;28;20032;-66
2022/12/03 04:57:06;;;;;;;29.50;10.73;;;-1.40;99.90;;;;;;5060305;28;20120;-67
2022/12/03 04:59:33;;;;;;;24.70;10.75;;;-1.40;99.90;;;;;;5066769;28;20416;-66
2022/12/03 05:01:59;;;;;;;27.75;11.98;;;-1.40;99.90;;;;;;5065883;28;20102;-67
2022/12/03 05:04:25;;;;;;;26.25;12.25;;;-1.40;99.90;;;;;;5063600;28;20478;-67
2022/12/03 05:06:50;;;;;;;26.75;12.45;;;-1.40;99.90;;;;;;5067093;28;20044;-67
2022/12/03 05:09:16;;;;;;;24.02;11.63;;;-1.40;99.90;;;;;;5066109;28;20105;-67
2022/12/03 05:11:42;;;;;;;24.80;11.30;;;-1.40;99.90;;;;;;5066767;28;20035;-67
2022/12/03 05:14:09;;;;;;;26.13;12.05;;;-1.40;99.90;;;;;;5063931;28;20437;-66
2022/12/03 05:16:35;;;;;;;27.98;11.50;;;-1.40;99.90;;;;;;5065865;28;20504;-67
2022/12/03 05:19:02;;;;;;;28.33;12.65;;;-1.50;99.90;;;;;;5066404;28;20051;-67
2022/12/03 05:21:28;;;;;;;31.70;13.30;;;-1.60;99.90;;;;;;5066946;28;20902;-67
2022/12/03 05:23:53;;;;;;;31.23;13.48;;;-1.60;99.90;;;;;;5065457;28;20036;-67
2022/12/03 05:26:19;;;;;;;26.45;11.93;;;-1.60;99.90;;;;;;5066613;28;20123;-67
2022/12/03 05:28:45;;;;;;;30.38;13.25;;;-1.60;99.90;;;;;;5066832;28;20040;-66
2022/12/03 05:31:11;;;;;;;30.75;15.13;;;-1.60;99.90;;;;;;5075891;28;20135;-67
2022/12/03 05:33:36;;;;;;;31.63;14.02;;;-1.60;99.90;;;;;;5072803;28;20048;-67
2022/12/03 05:36:02;;;;;;;31.63;14.52;;;-1.50;99.90;;;;;;5061836;28;20071;-66
2022/12/03 05:38:28;;;;;;;38.08;16.75;;;-1.60;99.90;;;;;;5054608;28;20972;-66
2022/12/03 05:40:54;;;;;;;39.38;15.75;;;-1.70;99.90;;;;;;5066712;28;20048;-67
2022/12/03 05:43:19;;;;;;;37.78;16.90;;;-1.80;99.90;;;;;;5065147;28;20039;-66
2022/12/03 05:45:45;;;;;;;36.42;15.77;;;-1.70;99.90;;;;;;5063252;28;20045;-66
2022/12/03 05:48:13;;;;;;;36.05;16.35;;;-1.70;99.90;;;;;;5064135;28;20029;-66
2022/12/03 05:50:44;;;;;;;41.88;17.65;;;-1.60;99.90;;;;;;5065855;28;20119;-67
2022/12/03 05:53:11;;;;;;;45.38;19.95;;;-1.60;99.90;;;;;;5061013;28;20082;-67
2022/12/03 05:55:37;;;;;;;40.95;16.63;;;-1.60;99.90;;;;;;5063252;28;20033;-67
2022/12/03 05:58:03;;;;;;;40.30;16.83;;;-1.60;99.90;;;;;;5064477;28;20036;-67
2022/12/03 06:00:32;;;;;;;41.08;17.48;;;-1.70;99.90;;;;;;5060820;28;20076;-67
2022/12/03 06:02:58;;;;;;;48.00;17.80;;;-1.70;99.90;;;;;;5075427;28;20102;-67
2022/12/03 06:05:24;;;;;;;52.90;20.38;;;-1.70;99.90;;;;;;5063129;28;20040;-67
2022/12/03 06:07:51;;;;;;;48.45;19.42;;;-1.70;99.90;;;;;;5066321;28;20090;-67
2022/12/03 06:10:19;;;;;;;44.90;17.50;;;-1.70;99.90;;;;;;5066244;28;20032;-67
2022/12/03 06:12:45;;;;;;;46.40;18.52;;;-1.70;99.90;;;;;;5066034;28;20121;-67
2022/12/03 06:15:12;;;;;;;42.10;18.50;;;-1.70;99.90;;;;;;5062153;28;20125;-66
2022/12/03 06:17:38;;;;;;;48.85;19.83;;;-1.70;99.90;;;;;;5064614;28;20633;-65
2022/12/03 06:20:05;;;;;;;49.20;19.95;;;-1.60;99.90;;;;;;5066154;28;20116;-65
2022/12/03 06:22:30;;;;;;;48.67;19.80;;;-1.70;99.90;;;;;;5067083;28;20458;-66
2022/12/03 06:24:56;;;;;;;42.08;17.92;;;-1.80;99.90;;;;;;5063958;28;20037;-64
2022/12/03 06:27:22;;;;;;;48.30;18.52;;;-1.70;99.90;;;;;;5062374;28;20048;-65
2022/12/03 06:29:47;;;;;;;50.88;20.80;;;-1.80;99.90;;;;;;5064170;28;20538;-66
2022/12/03 06:32:13;;;;;;;52.38;21.08;;;-1.80;99.90;;;;;;5060763;28;20066;-66
2022/12/03 06:34:39;;;;;;;50.72;19.77;;;-1.80;99.90;;;;;;5059577;28;20044;-66
2022/12/03 06:37:05;;;;;;;52.67;20.48;;;-1.80;99.90;;;;;;5065650;28;20048;-65
2022/12/03 06:39:31;;;;;;;47.85;20.65;;;-1.80;99.90;;;;;;5046203;28;20039;-66
2022/12/03 06:41:56;;;;;;;54.58;21.50;;;-1.80;99.90;;;;;;5066490;28;20091;-65
2022/12/03 06:44:22;;;;;;;47.83;19.70;;;-1.80;99.90;;;;;;5060647;28;20036;-66
2022/12/03 06:46:47;;;;;;;53.28;20.63;;;-1.80;99.90;;;;;;5064412;28;20496;-65
2022/12/03 06:49:13;;;;;;;58.70;23.20;;;-1.80;99.90;;;;;;5047216;28;20036;-65
2022/12/03 06:51:39;;;;;;;45.63;19.92;;;-1.90;99.90;;;;;;5061873;28;20032;-66
2022/12/03 06:54:05;;;;;;;49.65;21.27;;;-1.80;99.90;;;;;;5058937;28;20254;-67
2022/12/03 06:56:31;;;;;;;54.50;20.98;;;-1.80;99.90;;;;;;5064875;28;20040;-66
2022/12/03 06:58:57;;;;;;;55.55;22.48;;;-1.80;99.90;;;;;;5062268;28;20123;-67
2022/12/03 07:01:23;;;;;;;56.13;22.80;;;-1.90;99.90;;;;;;5058887;28;20648;-67
2022/12/03 07:03:48;;;;;;;58.90;22.88;;;-1.90;99.90;;;;;;5060723;28;20203;-65
2022/12/03 07:06:14;;;;;;;57.67;23.17;;;-1.90;99.90;;;;;;5062521;28;20494;-67
2022/12/03 07:08:40;;;;;;;55.22;21.77;;;-1.90;99.90;;;;;;5062572;28;20037;-68
2022/12/03 07:11:29;;;;;;;58.20;21.67;;;-1.90;99.90;;;;;;5065637;28;20032;-67
2022/12/03 07:13:55;;;;;;;58.80;21.77;;;-1.90;99.90;;;;;;5060506;28;20037;-63
2022/12/03 07:16:21;;;;;;;56.25;21.60;;;-1.80;99.90;;;;;;5043748;28;20048;-68
2022/12/03 07:18:47;;;;;;;55.97;23.10;;;-1.80;99.90;;;;;;5062708;28;20036;-66
2022/12/03 07:21:12;;;;;;;53.15;21.23;;;-1.80;99.90;;;;;;5062662;28;20415;-66
2022/12/03 07:23:38;;;;;;;53.25;21.48;;;-1.80;99.90;;;;;;5062668;28;20032;-67
2022/12/03 07:26:04;;;;;;;67.35;22.40;;;-1.90;99.90;;;;;;5063438;28;20072;-68
2022/12/03 07:28:29;;;;;;;65.07;24.33;;;-1.90;99.90;;;;;;5064888;28;20060;-68
2022/12/03 07:30:55;;;;;;;55.65;22.15;;;-2.00;99.90;;;;;;5067309;28;20037;-67
2022/12/03 07:33:21;;;;;;;47.75;18.60;;;-1.90;99.90;;;;;;5065132;28;20135;-68
2022/12/03 07:35:46;;;;;;;53.42;21.55;;;-1.90;99.90;;;;;;5062869;28;20051;-68
2022/12/03 07:38:12;;;;;;;53.97;21.98;;;-1.90;99.90;;;;;;5065949;28;20378;-67
2022/12/03 07:40:38;;;;;;;60.42;22.13;;;-1.90;99.90;;;;;;5067458;28;20036;-67
2022/12/03 07:43:03;;;;;;;59.28;22.02;;;-1.90;99.90;;;;;;5069860;28;20146;-65
2022/12/03 07:45:29;;;;;;;53.90;21.77;;;-1.90;99.90;;;;;;5067672;28;20037;-65
2022/12/03 07:47:55;;;;;;;61.30;23.17;;;-1.90;99.90;;;;;;5049084;28;20037;-67
2022/12/03 07:50:21;;;;;;;58.63;22.60;;;-2.00;99.90;;;;;;5050783;28;20104;-68
2022/12/03 07:52:47;;;;;;;49.42;19.30;;;-1.90;99.90;;;;;;5065677;28;20046;-68
2022/12/03 07:55:12;;;;;;;57.92;21.50;;;-1.90;99.90;;;;;;5062772;28;20127;-68
2022/12/03 07:57:38;;;;;;;59.08;21.33;;;-2.00;99.90;;;;;;5061074;28;20139;-67
2022/12/03 08:00:05;;;;;;;62.97;23.55;;;-2.00;99.90;;;;;;5066492;28;20064;-69
2022/12/03 08:02:31;;;;;;;66.82;22.17;;;-2.00;99.90;;;;;;5061651;28;20047;-69
2022/12/03 08:04:57;;;;;;;58.55;20.75;;;-1.90;99.90;;;;;;5064088;28;20037;-69
2022/12/03 08:07:23;;;;;;;55.95;21.45;;;-1.90;99.90;;;;;;5058997;28;20351;-69
2022/12/03 08:09:49;;;;;;;59.00;22.05;;;-1.90;99.90;;;;;;5066355;28;20404;-69
2022/12/03 08:12:21;;;;;;;67.10;22.10;;;-1.90;99.90;;;;;;5067980;28;20033;-68
2022/12/03 08:14:47;;;;;;;56.90;22.77;;;-1.90;99.90;;;;;;5063804;28;20071;-68
2022/12/03 08:17:13;;;;;;;57.90;21.73;;;-1.90;99.90;;;;;;5062972;28;20078;-68
2022/12/03 08:19:45;;;;;;;61.30;21.75;;;-1.80;99.90;;;;;;5065237;28;20041;-68
2022/12/03 08:22:15;;;;;;;57.03;21.05;;;-1.80;99.90;;;;;;5068591;28;20040;-68
2022/12/03 08:24:42;;;;;;;58.67;21.88;;;-1.90;99.90;;;;;;5047794;28;20044;-69
2022/12/03 08:27:17;;;;;;;60.08;23.35;;;-1.90;99.90;;;;;;5049856;28;20044;-68
2022/12/03 08:29:44;;;;;;;60.53;22.15;;;-1.90;99.90;;;;;;5068648;28;20048;-68
2022/12/03 08:32:11;;;;;;;55.38;21.08;;;-1.90;99.90;;;;;;5066806;28;20651;-68
2022/12/03 08:34:42;;;;;;;68.78;24.45;;;-1.80;99.90;;;;;;5065891;28;20117;-68
2022/12/03 08:37:15;;;;;;;58.83;22.58;;;-1.90;99.90;;;;;;5064371;28;20094;-69
2022/12/03 08:39:47;;;;;;;56.20;22.95;;;-1.90;99.90;;;;;;5063857;28;20131;-68
2022/12/03 08:45:38;;;;;;;55.40;21.70;;;-1.90;99.90;;;;;;5063438;28;20123;-68
2022/12/03 08:48:27;;;;;;;62.53;22.70;;;-1.90;99.90;;;;;;5063456;28;20055;-69
2022/12/03 08:50:55;;;;;;;83.75;24.17;;;-1.90;99.90;;;;;;5064790;28;20041;-68
2022/12/03 08:53:45;;;;;;;63.97;21.77;;;-1.90;99.90;;;;;;5059758;28;20044;-68
2022/12/03 08:56:22;;;;;;;55.60;21.83;;;-1.80;99.90;;;;;;5065138;28;20048;-69
2022/12/03 08:58:55;;;;;;;58.80;21.10;;;-1.80;99.90;;;;;;5063395;28;20062;-68
2022/12/03 09:01:42;;;;;;;54.92;21.95;;;-1.70;99.90;;;;;;5063743;28;20036;-68
2022/12/03 09:04:30;;;;;;;56.25;21.42;;;-1.70;99.90;;;;;;5059218;28;20040;-63
2022/12/03 09:06:56;;;;;;;61.65;23.15;;;-1.80;99.90;;;;;;5059789;28;20087;-64
2022/12/03 09:09:23;;;;;;;59.85;23.85;;;-1.70;99.90;;;;;;5048484;28;20047;-67
2022/12/03 09:11:49;;;;;;;53.88;21.67;;;-1.60;99.90;;;;;;5063263;28;20040;-67
2022/12/03 09:14:22;;;;;;;57.35;22.25;;;-1.70;99.90;;;;;;5065016;28;20818;-67
2022/12/03 09:16:54;;;;;;;60.72;23.63;;;-1.70;99.90;;;;;;5048470;28;20146;-68
2022/12/03 09:19:22;;;;;;;63.78;23.23;;;-1.80;99.90;;;;;;5061587;28;20051;-67
2022/12/03 09:21:48;;;;;;;62.38;23.95;;;-1.80;99.90;;;;;;5062952;28;20079;-68
2022/12/03 09:24:13;;;;;;;57.63;23.58;;;-1.70;99.90;;;;;;5044783;28;20702;-67
2022/12/03 09:26:39;;;;;;;51.85;20.65;;;-1.70;99.90;;;;;;5055783;28;20040;-67
2022/12/03 09:29:07;;;;;;;62.30;23.08;;;-1.60;99.90;;;;;;5065436;28;20543;-67
2022/12/03 09:31:33;;;;;;;62.70;22.83;;;-1.60;99.90;;;;;;5064424;28;20638;-67
2022/12/03 09:34:00;;;;;;;60.20;21.98;;;-1.70;99.90;;;;;;5063994;28;20025;-67
2022/12/03 09:36:26;;;;;;;65.88;23.17;;;-1.70;99.90;;;;;;5066457;28;20055;-67
2022/12/03 09:38:52;;;;;;;58.03;24.60;;;-1.70;99.90;;;;;;5066123;28;20647;-67
2022/12/03 09:41:18;;;;;;;52.67;21.75;;;-1.70;99.90;;;;;;5066337;28;20032;-67
2022/12/03 09:43:44;;;;;;;56.85;22.73;;;-1.70;99.90;;;;;;5065864;28;20087;-67
2022/12/03 09:46:09;;;;;;;61.58;22.67;;;-1.70;99.90;;;;;;5065032;28;20462;-67
2022/12/03 09:48:35;;;;;;;55.92;20.23;;;-1.60;99.90;;;;;;5062174;28;20045;-67
2022/12/03 09:51:02;;;;;;;77.72;23.38;;;-1.50;99.90;;;;;;5065131;28;20555;-67
2022/12/03 09:53:28;;;;;;;62.60;22.42;;;-1.50;99.90;;;;;;5065034;28;20040;-67
2022/12/03 09:55:58;;;;;;;52.38;20.70;;;-1.40;99.90;;;;;;5065165;28;20056;-67
2022/12/03 09:58:26;;;;;;;56.30;19.65;;;-1.50;99.90;;;;;;5066910;28;20040;-67
2022/12/03 10:00:52;;;;;;;79.30;22.48;;;-1.60;99.90;;;;;;5060352;28;20036;-67
2022/12/03 10:03:22;;;;;;;64.80;22.42;;;-1.50;99.90;;;;;;5065716;28;20048;-66
2022/12/03 10:05:49;;;;;;;69.25;22.30;;;-1.50;99.90;;;;;;5066339;28;20081;-67
2022/12/03 10:08:19;;;;;;;56.92;21.60;;;-1.50;99.90;;;;;;5065535;28;20376;-68
2022/12/03 10:10:48;;;;;;;56.88;21.27;;;-1.40;99.90;;;;;;5065450;28;20416;-67
2022/12/03 10:13:41;;;;;;;59.97;22.83;;;-1.30;99.90;;;;;;5055794;28;20044;-67
2022/12/03 10:16:10;;;;;;;67.25;24.15;;;-1.30;99.90;;;;;;5059893;28;20083;-67
2022/12/03 10:18:40;;;;;;;77.90;24.90;;;-1.40;99.90;;;;;;5065590;28;20101;-67
2022/12/03 10:21:21;;;;;;;79.43;24.60;;;-1.40;99.90;;;;;;5065935;28;20102;-67
2022/12/03 10:23:49;;;;;;;57.58;21.63;;;-1.50;99.90;;;;;;5064557;28;20565;-67
2022/12/03 10:26:15;;;;;;;61.45;23.08;;;-1.40;99.90;;;;;;5065416;28;20068;-67
2022/12/03 10:28:45;;;;;;;48.42;20.58;;;-1.50;99.90;;;;;;5066033;28;20120;-67
2022/12/03 10:31:12;;;;;;;60.78;21.45;;;-1.40;99.90;;;;;;5063445;28;20033;-67
2022/12/03 10:33:44;;;;;;;81.40;22.05;;;-1.40;99.90;;;;;;5049320;28;20504;-66
2022/12/03 10:36:30;;;;;;;95.35;24.98;;;-1.40;99.90;;;;;;5065251;28;20146;-67
2022/12/03 10:39:14;;;;;;;99.88;24.02;;;-1.50;99.90;;;;;;5063638;28;20566;-68
2022/12/03 10:41:41;;;;;;;65.57;22.98;;;-1.60;99.90;;;;;;5066138;28;20095;-68
2022/12/03 10:44:24;;;;;;;106.82;24.92;;;-1.60;99.90;;;;;;5064665;28;20048;-67
2022/12/03 10:47:11;;;;;;;81.65;26.23;;;-1.60;99.90;;;;;;5066498;28;20044;-66
2022/12/03 10:49:37;;;;;;;63.00;22.55;;;-1.60;99.90;;;;;;5064455;28;20048;-66
2022/12/03 10:52:05;;;;;;;75.78;22.48;;;-1.50;99.90;;;;;;5067020;28;20524;-67
2022/12/03 10:54:33;;;;;;;102.82;22.48;;;-1.50;99.90;;;;;;5048041;28;20032;-67
2022/12/03 10:57:01;;;;;;;107.30;24.48;;;-1.50;99.90;;;;;;5059117;28;20047;-67
2022/12/03 10:59:32;;;;;;;96.85;24.92;;;-1.50;99.90;;;;;;5065942;28;20073;-69
2022/12/03 11:01:58;;;;;;;197.65;29.02;;;-1.60;99.90;;;;;;5048380;28;20117;-67
2022/12/03 11:04:31;;;;;;;87.18;26.27;;;-1.70;99.90;;;;;;5067162;28;20036;-66
2022/12/03 11:06:56;;;;;;;68.35;22.42;;;-1.60;99.90;;;;;;5062925;28;20090;-68
2022/12/03 11:09:29;;;;;;;96.45;23.17;;;-1.60;99.90;;;;;;5049740;28;20040;-66
2022/12/03 11:12:01;;;;;;;76.00;23.92;;;-1.60;99.90;;;;;;5064610;28;20161;-67
2022/12/03 11:15:04;;;;;;;74.65;23.42;;;-1.50;99.90;;;;;;5065121;28;20068;-66
2022/12/03 11:17:48;;;;;;;77.95;24.80;;;-1.50;99.90;;;;;;5060534;28;20036;-66
2022/12/03 11:23:40;;;;;;;74.13;23.27;;;-1.50;99.90;;;;;;5837577;23;20343;-65
2022/12/03 11:26:05;;;;;;;70.30;21.50;;;-1.50;99.90;;;;;;5011522;28;20041;-67
2022/12/03 11:28:33;;;;;;;67.50;22.65;;;-1.50;99.90;;;;;;5023350;28;20071;-68
2022/12/03 11:31:10;;;;;;;74.22;21.13;;;-1.50;99.90;;;;;;5020760;28;20508;-67
2022/12/03 11:33:39;;;;;;;74.85;22.52;;;-1.60;99.90;;;;;;5008932;28;20034;-67
2022/12/03 11:36:05;;;;;;;88.25;22.50;;;-1.50;99.90;;;;;;5000487;28;20045;-68
2022/12/03 11:38:37;;;;;;;65.57;22.33;;;-1.40;99.90;;;;;;5003253;28;20077;-67
2022/12/03 11:42:01;;;;;;;92.65;26.83;;;-1.50;99.90;;;;;;5004335;28;20440;-67
2022/12/03 11:44:30;;;;;;;135.05;26.85;;;-1.50;99.90;;;;;;4995541;28;20823;-67
2022/12/03 11:46:57;;;;;;;83.63;24.05;;;-1.40;99.90;;;;;;4981116;28;20053;-67
2022/12/03 11:49:38;;;;;;;85.50;23.25;;;-1.40;99.90;;;;;;4997425;28;20080;-67
2022/12/03 11:52:28;;;;;;;96.85;25.60;;;-1.40;99.90;;;;;;5000467;28;20040;-68
2022/12/03 11:55:00;;;;;;;68.68;22.48;;;-1.40;99.90;;;;;;4997146;28;20053;-68
2022/12/03 11:57:33;;;;;;;80.75;21.73;;;-1.40;99.90;;;;;;5003981;28;20052;-68
2022/12/03 12:00:05;;;;;;;98.45;26.60;;;-1.30;99.90;;;;;;5003251;28;20046;-68
2022/12/03 12:02:32;;;;;;;85.68;25.05;;;-1.40;99.90;;;;;;5016477;28;20054;-68
2022/12/03 12:05:35;;;;;;;157.30;26.10;;;-1.40;99.90;;;;;;5017262;28;20409;-68
2022/12/03 12:08:01;;;;;;;282.00;28.92;;;-1.40;99.90;;;;;;5019741;28;20048;-68
2022/12/03 12:10:56;;;;;;;188.23;28.40;;;-1.40;99.90;;;;;;5020169;28;20117;-68
2022/12/03 12:13:31;;;;;;;133.65;24.10;;;-1.50;99.90;;;;;;5013598;28;20057;-68
2022/12/03 12:16:01;;;;;;;132.80;27.17;;;-1.50;99.90;;;;;;5027632;28;20124;-68
2022/12/03 12:18:47;;;;;;;83.07;22.85;;;-1.60;99.90;;;;;;5029559;28;20079;-68
2022/12/03 12:21:40;;;;;;;102.43;27.48;;;-1.60;99.90;;;;;;5021326;28;20427;-69
2022/12/03 12:24:31;;;;;;;71.30;23.63;;;-1.60;99.90;;;;;;5021765;28;20116;-69
2022/12/03 12:26:59;;;;;;;92.53;25.33;;;-1.50;99.90;;;;;;5024048;28;20053;-68
2022/12/03 12:29:25;;;;;;;75.70;22.63;;;-1.40;99.90;;;;;;5025437;28;20048;-68
2022/12/03 12:31:56;;;;;;;166.73;25.88;;;-1.40;99.90;;;;;;5024883;28;20488;-69
2022/12/03 12:34:22;;;;;;;109.18;22.65;;;-1.40;99.90;;;;;;5023527;28;20114;-69
2022/12/03 12:36:48;;;;;;;112.95;22.10;;;-1.40;99.90;;;;;;5025885;28;20119;-69
2022/12/03 12:39:14;;;;;;;71.25;23.35;;;-1.40;99.90;;;;;;5029245;28;20052;-68
2022/12/03 12:41:41;;;;;;;91.97;21.33;;;-1.40;99.90;;;;;;5025701;28;20044;-68
2022/12/03 12:44:09;;;;;;;84.93;22.33;;;-1.40;99.90;;;;;;5028882;28;20053;-68
2022/12/03 12:46:36;;;;;;;61.53;20.73;;;-1.40;99.90;;;;;;5023099;28;20046;-69
2022/12/03 12:49:10;;;;;;;60.78;23.38;;;-1.30;99.90;;;;;;5031245;28;20048;-68
2022/12/03 12:51:42;;;;;;;65.65;21.83;;;-1.30;99.90;;;;;;5026354;28;20099;-68
2022/12/03 12:54:14;;;;;;;208.13;26.40;;;-1.40;99.90;;;;;;5028195;28;20041;-67
2022/12/03 12:56:42;;;;;;;181.07;25.77;;;-1.40;99.90;;;;;;5025534;28;20106;-68
2022/12/03 12:59:23;;;;;;;102.30;24.17;;;-1.60;99.90;;;;;;5027753;28;20464;-68